Time;durP1;ratioP1;P1;durP2;ratioP2;P2;SDS_P1;SDS_P2;PMS_P1;PMS_P2;Temp;Humidity;BMP_temperature;BMP_pressure;BME280_temperature;BME280_humidity;BME280_pressure;Samples;Min_cycle;Max_cycle;Signal;HPM_P1;HPM_P2
2022/10/21 00:01:25;;;;;;;43.47;27.40;;;10.70;99.90;;;;;;5035798;28;20486;-31
2022/10/21 00:03:51;;;;;;;47.10;27.98;;;10.70;99.90;;;;;;5052958;28;20060;-30
2022/10/21 00:06:16;;;;;;;37.92;25.42;;;10.70;99.90;;;;;;5052244;28;20033;-30
2022/10/21 00:08:42;;;;;;;38.58;25.10;;;10.60;99.90;;;;;;5052886;28;20086;-29
2022/10/21 00:11:09;;;;;;;38.65;25.50;;;10.60;99.90;;;;;;5052625;28;20443;-31
2022/10/21 00:13:37;;;;;;;52.50;30.35;;;10.50;99.90;;;;;;5044258;28;20098;-30
2022/10/21 00:16:03;;;;;;;56.50;31.67;;;10.50;99.90;;;;;;5057985;28;20040;-31
2022/10/21 00:18:31;;;;;;;56.30;33.63;;;10.60;99.90;;;;;;5052147;28;20036;-30
2022/10/21 00:20:56;;;;;;;47.22;29.80;;;10.60;99.90;;;;;;5052753;28;20045;-31
2022/10/21 00:23:23;;;;;;;60.45;33.47;;;10.60;99.90;;;;;;5050941;28;20037;-33
2022/10/21 00:25:48;;;;;;;55.58;33.08;;;10.70;99.90;;;;;;5037608;28;20059;-29
2022/10/21 00:28:14;;;;;;;55.80;31.38;;;10.70;99.90;;;;;;5056105;28;20032;-31
2022/10/21 00:30:45;;;;;;;63.33;32.75;;;10.80;99.90;;;;;;5039630;28;20037;-30
2022/10/21 00:33:11;;;;;;;49.67;29.88;;;10.80;99.90;;;;;;5057657;28;20504;-31
2022/10/21 00:35:37;;;;;;;51.08;29.30;;;10.80;99.90;;;;;;5056081;28;20032;-30
2022/10/21 00:38:03;;;;;;;35.60;24.50;;;10.80;99.90;;;;;;5055995;28;20382;-31
2022/10/21 00:40:29;;;;;;;44.15;28.42;;;10.70;99.90;;;;;;5068296;28;20040;-30
2022/10/21 00:42:55;;;;;;;42.63;27.77;;;10.70;99.90;;;;;;5055693;28;20036;-29
2022/10/21 00:45:24;;;;;;;41.08;26.58;;;10.70;99.90;;;;;;5055199;28;20559;-31
2022/10/21 00:47:55;;;;;;;36.17;25.67;;;10.70;99.90;;;;;;5054269;28;20045;-30
2022/10/21 00:50:32;;;;;;;40.58;25.45;;;10.60;99.90;;;;;;5055876;28;20402;-33
2022/10/21 00:53:03;;;;;;;39.65;25.55;;;10.60;99.90;;;;;;5054235;28;20079;-30
2022/10/21 00:55:33;;;;;;;29.60;22.35;;;10.50;99.90;;;;;;5055393;28;20047;-33
2022/10/21 00:58:00;;;;;;;35.08;23.52;;;10.50;99.90;;;;;;5055462;28;20044;-30
2022/10/21 01:00:26;;;;;;;35.05;23.90;;;10.40;99.90;;;;;;5055712;28;20433;-34
2022/10/21 01:02:52;;;;;;;31.08;22.70;;;10.40;99.90;;;;;;5055212;28;20039;-30
2022/10/21 01:05:18;;;;;;;29.67;20.80;;;10.30;99.90;;;;;;5055386;28;20033;-33
2022/10/21 01:07:46;;;;;;;33.55;22.33;;;10.30;99.90;;;;;;5055601;28;20051;-28
2022/10/21 01:10:12;;;;;;;34.17;23.05;;;10.30;99.90;;;;;;5056585;28;20044;-27
2022/10/21 01:12:56;;;;;;;36.72;23.15;;;10.30;99.90;;;;;;5056120;28;20045;-26
2022/10/21 01:15:38;;;;;;;40.10;25.42;;;10.30;99.90;;;;;;5056203;28;20119;-29
2022/10/21 01:18:26;;;;;;;32.67;22.85;;;10.30;99.90;;;;;;5056058;28;20083;-26
2022/10/21 01:21:04;;;;;;;40.58;26.85;;;10.30;99.90;;;;;;5056067;28;20045;-28
2022/10/21 01:24:07;;;;;;;38.83;25.77;;;10.30;99.90;;;;;;5056215;28;20501;-27
2022/10/21 01:26:50;;;;;;;43.78;26.15;;;10.40;99.90;;;;;;5055930;28;20051;-28
2022/10/21 01:29:43;;;;;;;35.10;23.48;;;10.40;99.90;;;;;;5039486;28;20054;-27
2022/10/21 01:32:25;;;;;;;36.33;23.80;;;10.50;99.90;;;;;;5055710;28;20052;-27
2022/10/21 01:34:54;;;;;;;42.67;24.98;;;10.50;99.90;;;;;;5055622;28;20079;-26
2022/10/21 01:37:29;;;;;;;31.00;22.05;;;10.50;99.90;;;;;;5054842;28;20040;-26
2022/10/21 01:40:12;;;;;;;34.95;23.67;;;10.50;99.90;;;;;;5055624;28;20102;-28
2022/10/21 01:42:46;;;;;;;61.40;32.60;;;10.50;99.90;;;;;;5073364;28;20044;-29
2022/10/21 01:45:25;;;;;;;64.10;31.88;;;10.60;99.90;;;;;;5055821;28;20036;-28
2022/10/21 01:47:56;;;;;;;49.50;29.52;;;10.60;99.90;;;;;;5089230;28;20040;-28
2022/10/21 01:50:26;;;;;;;45.90;28.33;;;10.70;99.90;;;;;;5055830;28;20358;-26
2022/10/21 01:52:56;;;;;;;48.45;29.05;;;10.80;99.90;;;;;;5055317;28;20045;-27
2022/10/21 01:55:26;;;;;;;63.10;33.97;;;10.90;99.90;;;;;;5055682;28;20080;-28
2022/10/21 01:58:03;;;;;;;56.13;31.40;;;11.00;99.90;;;;;;5055342;28;20493;-26
2022/10/21 02:00:31;;;;;;;43.45;27.70;;;11.10;99.90;;;;;;5055749;28;20041;-28
2022/10/21 02:02:59;;;;;;;44.00;27.88;;;11.10;99.90;;;;;;5055446;28;20519;-27
2022/10/21 02:05:30;;;;;;;54.78;31.38;;;11.20;99.90;;;;;;5055455;28;20377;-27
2022/10/21 02:07:56;;;;;;;50.70;29.52;;;11.20;99.90;;;;;;5055598;28;20055;-26
2022/10/21 02:10:26;;;;;;;43.50;28.60;;;11.30;99.90;;;;;;5055025;28;20040;-27
2022/10/21 02:12:55;;;;;;;40.67;27.13;;;11.30;99.90;;;;;;5072866;28;20040;-27
2022/10/21 02:15:24;;;;;;;48.88;29.92;;;11.30;99.90;;;;;;5055303;28;20492;-28
2022/10/21 02:18:01;;;;;;;40.00;26.45;;;11.30;99.90;;;;;;5055165;28;20120;-26
2022/10/21 02:20:29;;;;;;;50.03;28.23;;;11.40;99.90;;;;;;5055129;28;20397;-28
2022/10/21 02:22:55;;;;;;;52.97;29.35;;;11.40;99.90;;;;;;5055012;28;20048;-27
2022/10/21 02:25:26;;;;;;;41.17;25.88;;;11.50;99.90;;;;;;5054793;28;20120;-27
2022/10/21 02:27:53;;;;;;;54.45;31.50;;;11.50;99.90;;;;;;5054730;28;20037;-27
2022/10/21 02:30:19;;;;;;;38.20;24.85;;;11.50;99.90;;;;;;5054698;28;20044;-27
2022/10/21 02:33:10;;;;;;;35.08;25.05;;;11.60;99.90;;;;;;5054670;28;20032;-28
2022/10/21 02:35:47;;;;;;;36.55;23.75;;;11.50;99.90;;;;;;5054922;28;20427;-28
2022/10/21 02:38:23;;;;;;;34.22;24.00;;;11.50;99.90;;;;;;5054522;28;20036;-27
2022/10/21 02:40:54;;;;;;;30.92;21.70;;;11.60;99.90;;;;;;5054817;28;20047;-26
2022/10/21 02:43:47;;;;;;;31.00;21.73;;;11.60;99.90;;;;;;5054318;28;20071;-26
2022/10/21 02:46:14;;;;;;;28.45;20.33;;;11.50;99.90;;;;;;5054525;28;20033;-27
2022/10/21 02:48:43;;;;;;;29.42;21.95;;;11.50;99.90;;;;;;5054332;28;20044;-26
2022/10/21 02:51:08;;;;;;;41.72;26.20;;;11.50;99.90;;;;;;5054707;28;20097;-27
2022/10/21 02:53:35;;;;;;;32.17;22.27;;;11.60;99.90;;;;;;5087784;28;20044;-27
2022/10/21 02:56:01;;;;;;;31.35;22.92;;;11.60;99.90;;;;;;5054484;28;20044;-28
2022/10/21 02:58:29;;;;;;;28.15;19.73;;;11.60;99.90;;;;;;5053986;28;20123;-26
2022/10/21 03:00:55;;;;;;;25.08;18.27;;;11.60;99.90;;;;;;5054546;28;20048;-27
2022/10/21 03:03:21;;;;;;;28.90;20.38;;;11.60;99.90;;;;;;5054182;28;20413;-27
2022/10/21 03:05:47;;;;;;;29.25;21.60;;;11.50;99.90;;;;;;5072450;28;20032;-28
2022/10/21 03:08:13;;;;;;;27.48;19.48;;;11.60;99.90;;;;;;5054279;28;20032;-28
2022/10/21 03:10:39;;;;;;;34.85;24.08;;;11.60;99.90;;;;;;5054298;28;20044;-27
2022/10/21 03:13:04;;;;;;;60.53;29.42;;;11.60;99.90;;;;;;5054355;28;20037;-26
2022/10/21 03:15:30;;;;;;;38.05;25.17;;;11.60;99.90;;;;;;5053978;28;20101;-28
2022/10/21 03:17:56;;;;;;;28.25;21.85;;;11.60;99.90;;;;;;5054299;28;20047;-26
2022/10/21 03:20:22;;;;;;;27.42;19.55;;;11.50;99.90;;;;;;5054152;28;20400;-27
2022/10/21 03:22:48;;;;;;;42.17;25.30;;;11.50;99.90;;;;;;5054218;28;20481;-27
2022/10/21 03:25:13;;;;;;;27.17;19.88;;;11.50;99.90;;;;;;5054215;28;20032;-26
2022/10/21 03:27:39;;;;;;;26.08;19.25;;;11.50;99.90;;;;;;5053882;28;20404;-27
2022/10/21 03:30:06;;;;;;;37.65;19.58;;;11.50;99.90;;;;;;5054035;28;20045;-27
2022/10/21 03:32:32;;;;;;;119.38;29.98;;;11.40;99.90;;;;;;5053807;28;20041;-26
2022/10/21 03:34:58;;;;;;;33.20;21.42;;;11.40;99.90;;;;;;5053670;28;20048;-28
2022/10/21 03:37:24;;;;;;;32.15;21.65;;;11.40;99.90;;;;;;5087250;28;20482;-28
2022/10/21 03:39:49;;;;;;;63.15;26.98;;;11.40;99.90;;;;;;5053763;28;20044;-27
2022/10/21 03:42:15;;;;;;;34.47;23.73;;;11.40;99.90;;;;;;5053984;28;20051;-28
2022/10/21 03:44:41;;;;;;;139.88;36.67;;;11.40;99.90;;;;;;5087584;28;20567;-27
2022/10/21 03:47:07;;;;;;;32.10;21.42;;;11.40;99.90;;;;;;5053967;28;20040;-27
2022/10/21 03:49:32;;;;;;;25.45;19.38;;;11.30;99.90;;;;;;5054038;28;20079;-27
2022/10/21 03:51:58;;;;;;;28.17;19.85;;;11.30;99.90;;;;;;5054065;28;20516;-29
2022/10/21 03:54:24;;;;;;;32.55;22.58;;;11.30;99.90;;;;;;5053707;28;20051;-28
2022/10/21 03:56:50;;;;;;;28.90;22.02;;;11.30;99.90;;;;;;5053908;28;20040;-26
2022/10/21 03:59:15;;;;;;;29.20;21.10;;;11.40;99.90;;;;;;5053875;28;20064;-29
2022/10/21 04:01:41;;;;;;;42.28;25.42;;;11.40;99.90;;;;;;5057047;28;20036;-26
2022/10/21 04:04:07;;;;;;;49.38;25.50;;;11.40;99.90;;;;;;5040765;28;20040;-27
2022/10/21 04:06:33;;;;;;;70.78;28.85;;;11.40;99.90;;;;;;5057748;28;20037;-28
2022/10/21 04:08:59;;;;;;;33.25;22.73;;;11.50;99.90;;;;;;5057919;28;20149;-28
2022/10/21 04:11:24;;;;;;;36.30;24.30;;;11.50;99.90;;;;;;5057584;28;20129;-27
2022/10/21 04:13:50;;;;;;;32.28;21.85;;;11.40;99.90;;;;;;5057584;28;20047;-28
2022/10/21 04:16:18;;;;;;;37.35;24.08;;;11.40;99.90;;;;;;5057641;28;20059;-28
2022/10/21 04:18:44;;;;;;;52.05;28.67;;;11.40;99.90;;;;;;5057110;28;20032;-28
2022/10/21 04:21:10;;;;;;;50.55;26.45;;;11.40;99.90;;;;;;5057346;28;20378;-28
2022/10/21 04:23:36;;;;;;;42.55;25.17;;;11.40;99.90;;;;;;5057164;28;20028;-28
2022/10/21 04:26:03;;;;;;;43.47;26.65;;;11.40;99.90;;;;;;5057273;28;20036;-27
2022/10/21 04:28:29;;;;;;;36.90;24.88;;;11.40;99.90;;;;;;5057017;28;20076;-27
2022/10/21 04:30:55;;;;;;;34.05;24.85;;;11.40;99.90;;;;;;5056932;28;20079;-26
2022/10/21 04:33:21;;;;;;;33.33;23.02;;;11.40;99.90;;;;;;5057022;28;20041;-28
2022/10/21 04:35:46;;;;;;;42.10;26.80;;;11.40;99.90;;;;;;5057342;28;20032;-28
2022/10/21 04:38:12;;;;;;;57.53;31.13;;;11.50;99.90;;;;;;5056853;28;20101;-29
2022/10/21 04:40:38;;;;;;;52.80;30.27;;;11.50;99.90;;;;;;5056131;28;20098;-28
2022/10/21 04:43:04;;;;;;;42.17;26.80;;;11.50;99.90;;;;;;5056526;28;20393;-27
2022/10/21 04:45:30;;;;;;;40.50;25.88;;;11.50;99.90;;;;;;5056265;28;20043;-28
2022/10/21 04:47:56;;;;;;;37.83;25.05;;;11.50;99.90;;;;;;5056561;28;20032;-28
2022/10/21 04:50:22;;;;;;;53.30;29.85;;;11.50;99.90;;;;;;5055523;28;20039;-28
2022/10/21 04:52:48;;;;;;;42.20;27.25;;;11.50;99.90;;;;;;5055869;28;20036;-27
2022/10/21 04:55:14;;;;;;;40.63;26.40;;;11.60;99.90;;;;;;5055822;28;20040;-27
2022/10/21 04:57:40;;;;;;;41.55;26.50;;;11.60;99.90;;;;;;5055686;28;20040;-28
2022/10/21 05:00:06;;;;;;;54.83;29.23;;;11.60;99.90;;;;;;5055948;28;20068;-27
2022/10/21 05:02:33;;;;;;;50.33;27.13;;;11.60;99.90;;;;;;5051159;28;20028;-27
2022/10/21 05:04:58;;;;;;;43.50;27.17;;;11.60;99.90;;;;;;5040947;28;20075;-27
2022/10/21 05:07:24;;;;;;;42.17;26.75;;;11.60;99.90;;;;;;5052609;28;20074;-27
2022/10/21 05:09:50;;;;;;;34.40;25.00;;;11.60;99.90;;;;;;5036880;28;20141;-28
2022/10/21 05:12:15;;;;;;;39.72;25.00;;;11.60;99.90;;;;;;5052846;28;20040;-27
2022/10/21 05:14:41;;;;;;;36.45;24.85;;;11.60;99.90;;;;;;5054234;28;20037;-27
2022/10/21 05:17:07;;;;;;;44.63;26.63;;;11.60;99.90;;;;;;5052301;28;20177;-27
2022/10/21 05:19:32;;;;;;;38.88;25.50;;;11.60;99.90;;;;;;5060745;28;20374;-27
2022/10/21 05:21:58;;;;;;;32.70;22.83;;;11.60;99.90;;;;;;5055351;28;20040;-28
2022/10/21 05:24:24;;;;;;;28.60;22.08;;;11.50;99.90;;;;;;5055380;28;20035;-29
2022/10/21 05:26:51;;;;;;;46.22;27.42;;;11.40;99.90;;;;;;5055188;28;20394;-26
2022/10/21 05:29:17;;;;;;;32.00;23.23;;;11.40;99.90;;;;;;5055501;28;20051;-26
2022/10/21 05:31:43;;;;;;;39.17;25.08;;;11.40;99.90;;;;;;5055204;28;20043;-27
2022/10/21 05:34:09;;;;;;;38.13;23.67;;;11.30;99.90;;;;;;5059751;28;20055;-27
2022/10/21 05:36:35;;;;;;;34.70;22.13;;;11.30;99.90;;;;;;5055251;28;20024;-28
2022/10/21 05:39:01;;;;;;;33.80;22.70;;;11.20;99.90;;;;;;5052765;28;20032;-27
2022/10/21 05:41:26;;;;;;;37.55;24.63;;;11.10;99.90;;;;;;5056543;28;20405;-26
2022/10/21 05:43:52;;;;;;;35.47;22.38;;;11.10;99.90;;;;;;5055050;28;20035;-28
2022/10/21 05:46:18;;;;;;;40.08;24.38;;;11.10;99.90;;;;;;5055347;28;20032;-28
2022/10/21 05:48:44;;;;;;;29.48;21.13;;;11.00;99.90;;;;;;5041000;28;20037;-27
2022/10/21 05:51:09;;;;;;;30.83;21.52;;;11.00;99.90;;;;;;5047069;28;20099;-27
2022/10/21 05:53:35;;;;;;;26.80;19.52;;;10.90;99.90;;;;;;5046655;28;20350;-27
2022/10/21 05:56:07;;;;;;;30.98;21.77;;;10.80;99.90;;;;;;5055123;28;20051;-28
2022/10/21 05:58:33;;;;;;;32.28;20.65;;;10.80;99.90;;;;;;5046522;28;20032;-27
2022/10/21 06:01:00;;;;;;;27.08;18.52;;;10.80;99.90;;;;;;5054425;28;20036;-27
2022/10/21 06:03:31;;;;;;;27.15;19.48;;;10.70;99.90;;;;;;5046290;28;20036;-28
2022/10/21 06:05:58;;;;;;;25.52;17.95;;;10.70;99.90;;;;;;5054769;28;20050;-27
2022/10/21 06:08:26;;;;;;;32.97;21.08;;;10.60;99.90;;;;;;5046388;28;20039;-27
2022/10/21 06:11:08;;;;;;;28.00;19.83;;;10.60;99.90;;;;;;5054511;28;20158;-27
2022/10/21 06:13:34;;;;;;;29.60;19.67;;;10.60;99.90;;;;;;5054569;28;20076;-29
2022/10/21 06:16:01;;;;;;;24.83;18.58;;;10.50;99.90;;;;;;5054265;28;20040;-27
2022/10/21 06:18:27;;;;;;;28.30;19.58;;;10.50;99.90;;;;;;5055137;28;20137;-28
2022/10/21 06:20:53;;;;;;;26.73;19.40;;;10.50;99.90;;;;;;5056936;28;20076;-27
2022/10/21 06:23:19;;;;;;;30.75;18.17;;;10.50;99.90;;;;;;5059258;28;20400;-27
2022/10/21 06:26:06;;;;;;;27.48;19.52;;;10.50;99.90;;;;;;5058022;28;20064;-28
2022/10/21 06:28:34;;;;;;;27.20;18.67;;;10.50;99.90;;;;;;5055292;28;20043;-34
2022/10/21 06:31:00;;;;;;;29.38;20.08;;;10.50;99.90;;;;;;5053811;28;20127;-31
2022/10/21 06:33:26;;;;;;;23.95;17.70;;;10.50;99.90;;;;;;5059117;28;20238;-35
2022/10/21 06:35:52;;;;;;;32.10;19.45;;;10.40;99.90;;;;;;5071386;28;20176;-30
2022/10/21 06:38:18;;;;;;;24.35;17.55;;;10.40;99.90;;;;;;5036506;28;20036;-32
2022/10/21 06:40:44;;;;;;;28.10;19.80;;;10.40;99.90;;;;;;5046699;28;20037;-32
2022/10/21 06:43:10;;;;;;;28.08;18.58;;;10.50;99.90;;;;;;5035569;28;20118;-32
2022/10/21 06:45:36;;;;;;;29.75;20.17;;;10.50;99.90;;;;;;5049132;28;20036;-31
2022/10/21 06:48:02;;;;;;;24.90;17.15;;;10.50;99.90;;;;;;5053685;28;20040;-30
2022/10/21 06:50:28;;;;;;;27.73;18.05;;;10.50;99.90;;;;;;5047574;28;20049;-34
2022/10/21 06:52:54;;;;;;;26.15;18.38;;;10.50;99.90;;;;;;5052993;28;20561;-34
2022/10/21 06:55:20;;;;;;;23.38;18.38;;;10.50;99.90;;;;;;5053715;28;20098;-34
2022/10/21 06:57:46;;;;;;;28.27;19.77;;;10.50;99.90;;;;;;5053259;28;20029;-31
2022/10/21 07:00:13;;;;;;;26.10;18.42;;;10.50;99.90;;;;;;5053488;28;20037;-28
2022/10/21 07:02:40;;;;;;;27.25;18.20;;;10.50;99.90;;;;;;5053563;28;20440;-29
2022/10/21 07:05:06;;;;;;;36.42;23.05;;;10.60;99.90;;;;;;5053595;28;20043;-30
2022/10/21 07:07:32;;;;;;;25.52;18.30;;;10.60;99.90;;;;;;5056143;28;20110;-31
2022/10/21 07:09:57;;;;;;;26.95;19.13;;;10.70;99.90;;;;;;5057362;28;20036;-31
2022/10/21 07:12:29;;;;;;;28.85;20.10;;;10.80;99.90;;;;;;5046314;28;20056;-32
2022/10/21 07:14:54;;;;;;;27.52;18.60;;;10.80;99.90;;;;;;5039322;28;21862;-33
2022/10/21 07:17:20;;;;;;;26.55;18.17;;;10.90;99.90;;;;;;5050331;28;20062;-30
2022/10/21 07:19:46;;;;;;;24.08;18.00;;;10.90;99.90;;;;;;5050690;28;20113;-29
2022/10/21 07:22:16;;;;;;;42.17;25.73;;;11.00;99.90;;;;;;5052030;28;20033;-30
2022/10/21 07:24:42;;;;;;;47.40;27.10;;;11.00;99.90;;;;;;5053278;28;20517;-30
2022/10/21 07:27:08;;;;;;;37.78;23.80;;;11.10;99.90;;;;;;5052375;28;20025;-29
2022/10/21 07:29:34;;;;;;;28.63;20.17;;;11.30;99.90;;;;;;5030725;28;20040;-30
2022/10/21 07:32:00;;;;;;;38.50;25.27;;;11.30;99.90;;;;;;5052705;28;20413;-32
2022/10/21 07:34:26;;;;;;;47.08;26.63;;;11.40;99.90;;;;;;5042847;28;20029;-30
2022/10/21 07:36:52;;;;;;;44.88;27.25;;;11.50;99.90;;;;;;5056619;28;20033;-30
2022/10/21 07:39:21;;;;;;;50.60;27.75;;;11.70;99.90;;;;;;5056478;28;20402;-32
2022/10/21 07:41:50;;;;;;;31.05;22.40;;;11.80;99.90;;;;;;5056308;28;20506;-33
2022/10/21 07:44:17;;;;;;;36.50;22.70;;;11.90;99.90;;;;;;5056638;28;20028;-30
2022/10/21 07:46:44;;;;;;;38.35;22.50;;;12.00;99.90;;;;;;5056928;28;20035;-32
2022/10/21 07:49:11;;;;;;;34.67;23.00;;;12.10;99.90;;;;;;5056357;28;20040;-30
2022/10/21 07:51:37;;;;;;;30.35;21.58;;;12.30;99.90;;;;;;5055327;28;20039;-33
2022/10/21 07:54:03;;;;;;;35.92;23.42;;;12.40;99.90;;;;;;5056354;28;20090;-33
2022/10/21 07:56:36;;;;;;;30.63;23.73;;;12.60;99.90;;;;;;5054863;28;20052;-30
2022/10/21 07:59:03;;;;;;;33.10;22.53;;;12.90;99.90;;;;;;5034231;28;20037;-31
2022/10/21 08:01:30;;;;;;;31.10;21.90;;;13.10;99.90;;;;;;5056051;28;20714;-32
2022/10/21 08:03:57;;;;;;;30.90;22.05;;;13.20;99.90;;;;;;5050805;28;20040;-33
2022/10/21 08:06:24;;;;;;;26.05;20.42;;;13.50;99.90;;;;;;5056553;28;20440;-30
2022/10/21 08:08:51;;;;;;;28.25;20.40;;;13.60;99.90;;;;;;5056711;28;20085;-32
2022/10/21 08:11:26;;;;;;;29.38;20.55;;;13.90;99.90;;;;;;5053180;28;20120;-32
2022/10/21 08:13:53;;;;;;;27.00;18.88;;;14.50;99.90;;;;;;5056144;28;20123;-32
2022/10/21 08:16:18;;;;;;;20.83;17.25;;;15.00;99.90;;;;;;5056428;28;20040;-33
2022/10/21 08:18:44;;;;;;;20.02;16.02;;;15.60;99.90;;;;;;5056250;28;20040;-34
2022/10/21 08:21:10;;;;;;;21.23;15.05;;;16.00;99.90;;;;;;5055960;28;20482;-33
2022/10/21 08:23:36;;;;;;;20.13;13.60;;;16.40;99.90;;;;;;5056060;28;20090;-32
2022/10/21 08:26:02;;;;;;;16.42;12.75;;;16.90;99.90;;;;;;5056444;28;20063;-35
2022/10/21 08:28:30;;;;;;;15.77;13.38;;;17.40;99.90;;;;;;5056119;28;20036;-32
2022/10/21 08:31:07;;;;;;;17.02;13.10;;;17.70;99.90;;;;;;5056124;28;20044;-35
2022/10/21 08:33:33;;;;;;;17.02;12.98;;;17.80;99.90;;;;;;5055205;28;20051;-30
2022/10/21 08:36:08;;;;;;;15.27;11.63;;;17.80;99.90;;;;;;5050455;28;20123;-31
2022/10/21 08:38:34;;;;;;;14.38;12.43;;;17.60;99.90;;;;;;5056374;28;20043;-33
2022/10/21 08:41:00;;;;;;;13.30;11.90;;;17.40;99.90;;;;;;5056241;28;20105;-32
2022/10/21 08:43:33;;;;;;;14.90;12.95;;;17.20;99.90;;;;;;5055815;28;20072;-31
2022/10/21 08:46:10;;;;;;;19.60;12.07;;;16.90;99.90;;;;;;5055534;28;20097;-33
2022/10/21 08:48:42;;;;;;;18.73;12.77;;;16.80;99.90;;;;;;5055910;28;20036;-33
2022/10/21 08:51:18;;;;;;;16.63;11.90;;;16.80;99.90;;;;;;5056349;28;20032;-33
2022/10/21 08:53:47;;;;;;;15.35;12.90;;;17.00;99.90;;;;;;5050355;28;20089;-31
2022/10/21 08:56:14;;;;;;;15.98;11.95;;;17.10;99.90;;;;;;5055690;28;20040;-34
2022/10/21 08:58:43;;;;;;;16.80;15.07;;;17.30;99.90;;;;;;5055468;28;20037;-34
2022/10/21 09:01:23;;;;;;;14.88;12.85;;;17.40;99.90;;;;;;5035424;28;20044;-34
2022/10/21 09:04:09;;;;;;;12.65;11.20;;;17.40;99.90;;;;;;5049511;28;20236;-33
2022/10/21 09:06:46;;;;;;;16.02;12.18;;;17.40;99.90;;;;;;5047544;28;20123;-34
2022/10/21 09:09:35;;;;;;;14.50;11.27;;;17.50;99.90;;;;;;5055182;28;20085;-33
2022/10/21 09:12:01;;;;;;;13.73;11.45;;;17.50;99.90;;;;;;5031640;28;20177;-33
2022/10/21 09:14:38;;;;;;;16.98;11.77;;;17.60;99.90;;;;;;5052922;28;20536;-32
2022/10/21 09:17:34;;;;;;;14.50;11.30;;;17.70;99.90;;;;;;5053037;28;20041;-34
2022/10/21 09:20:19;;;;;;;16.63;10.70;;;17.70;99.90;;;;;;5066518;28;20037;-34
2022/10/21 09:22:56;;;;;;;12.93;11.10;;;17.80;99.90;;;;;;5053888;28;20037;-33
2022/10/21 09:25:30;;;;;;;14.10;9.90;;;18.10;99.90;;;;;;5054541;28;20040;-31
2022/10/21 09:27:57;;;;;;;9.70;8.73;;;18.40;99.90;;;;;;5051326;28;20044;-34
2022/10/21 09:30:24;;;;;;;11.05;9.27;;;18.70;99.90;;;;;;5055403;28;20044;-31
2022/10/21 09:32:57;;;;;;;10.25;8.90;;;18.90;99.90;;;;;;5074180;28;20067;-30
2022/10/21 09:35:50;;;;;;;11.80;10.00;;;19.00;99.90;;;;;;5055092;28;20037;-33
2022/10/21 09:38:22;;;;;;;12.05;9.63;;;19.00;99.90;;;;;;5050483;28;20178;-30
2022/10/21 09:40:51;;;;;;;13.88;10.27;;;19.00;99.90;;;;;;5048800;28;20039;-30
2022/10/21 09:43:22;;;;;;;12.20;10.23;;;18.80;99.90;;;;;;5054729;28;20037;-29
2022/10/21 09:45:48;;;;;;;10.57;9.10;;;18.70;99.90;;;;;;5049604;28;20029;-28
2022/10/21 09:48:17;;;;;;;9.32;8.30;;;18.60;99.90;;;;;;5054664;28;20116;-27
2022/10/21 09:51:19;;;;;;;11.05;9.18;;;18.60;99.90;;;;;;5054702;28;20079;-28
2022/10/21 09:53:50;;;;;;;11.02;8.45;;;18.60;99.90;;;;;;5045995;28;20048;-28
2022/10/21 09:56:23;;;;;;;10.38;9.30;;;18.60;99.90;;;;;;5044636;28;20452;-29
2022/10/21 09:59:07;;;;;;;10.95;8.35;;;18.50;99.90;;;;;;5053520;28;20040;-28
2022/10/21 10:01:33;;;;;;;9.05;8.07;;;18.40;99.90;;;;;;5054745;28;20037;-28
2022/10/21 10:04:08;;;;;;;13.60;9.35;;;18.20;99.90;;;;;;5054841;28;20363;-28
2022/10/21 10:06:42;;;;;;;12.75;8.75;;;18.20;99.90;;;;;;5054782;28;20040;-28
2022/10/21 10:09:22;;;;;;;11.68;9.43;;;18.00;99.90;;;;;;5054506;28;20036;-28
2022/10/21 10:12:05;;;;;;;11.23;9.38;;;17.90;99.90;;;;;;5032138;28;20062;-28
2022/10/21 10:14:34;;;;;;;12.45;9.32;;;17.70;99.90;;;;;;5053921;28;20143;-29
2022/10/21 10:17:20;;;;;;;11.20;9.23;;;17.60;99.90;;;;;;5054450;28;20137;-27
2022/10/21 10:20:04;;;;;;;11.07;9.48;;;17.40;99.90;;;;;;5044252;28;20498;-28
2022/10/21 10:22:57;;;;;;;11.50;8.70;;;17.40;99.90;;;;;;5053214;28;20052;-27
2022/10/21 10:25:27;;;;;;;12.02;9.80;;;17.30;99.90;;;;;;5052901;28;20477;-28
2022/10/21 10:28:12;;;;;;;18.23;10.43;;;17.30;99.90;;;;;;5054033;28;20029;-31
2022/10/21 10:30:41;;;;;;;11.55;9.00;;;17.20;99.90;;;;;;5045562;28;20481;-28
2022/10/21 10:33:29;;;;;;;10.50;9.40;;;17.20;99.90;;;;;;5054364;28;20055;-28
2022/10/21 10:36:00;;;;;;;12.15;9.43;;;17.20;99.90;;;;;;5051317;28;20043;-28
2022/10/21 10:38:39;;;;;;;12.15;9.45;;;17.10;99.90;;;;;;5071889;28;20055;-29
2022/10/21 10:41:15;;;;;;;12.25;10.00;;;17.10;99.90;;;;;;5054581;28;20059;-27
2022/10/21 10:43:45;;;;;;;11.13;9.82;;;17.10;99.90;;;;;;5045791;28;20024;-27
2022/10/21 10:46:27;;;;;;;13.25;9.98;;;17.10;99.90;;;;;;5063634;28;20525;-28
2022/10/21 10:48:55;;;;;;;12.70;10.25;;;17.10;99.90;;;;;;5051893;28;20123;-30
2022/10/21 10:51:31;;;;;;;12.95;11.05;;;17.10;99.90;;;;;;5056068;28;20084;-27
2022/10/21 10:54:05;;;;;;;13.95;10.50;;;17.10;99.90;;;;;;5053844;28;20037;-28
2022/10/21 10:56:41;;;;;;;16.05;10.35;;;17.20;99.90;;;;;;5054772;28;20478;-28
2022/10/21 10:59:13;;;;;;;13.48;9.65;;;17.20;99.90;;;;;;5054035;28;20397;-30
2022/10/21 11:02:01;;;;;;;12.50;9.40;;;17.30;99.90;;;;;;5045826;28;20485;-30
2022/10/21 11:04:36;;;;;;;11.98;10.65;;;17.50;99.90;;;;;;5052982;28;20055;-31
2022/10/21 11:07:26;;;;;;;12.70;10.82;;;17.50;99.90;;;;;;5053099;28;20117;-30
2022/10/21 11:09:57;;;;;;;13.63;10.02;;;17.70;99.90;;;;;;5028547;28;20047;-31
2022/10/21 11:12:25;;;;;;;11.57;9.00;;;17.70;99.90;;;;;;5054495;28;20048;-31
2022/10/21 11:14:57;;;;;;;11.52;9.85;;;17.80;99.90;;;;;;5052314;28;20036;-30
2022/10/21 11:17:40;;;;;;;11.23;9.40;;;17.80;99.90;;;;;;5051395;28;20400;-31
2022/10/21 11:20:31;;;;;;;10.80;8.43;;;17.90;99.90;;;;;;5024613;28;20040;-31
2022/10/21 11:23:27;;;;;;;11.55;8.15;;;18.00;99.90;;;;;;5048453;28;20040;-30
2022/10/21 11:26:15;;;;;;;11.35;8.20;;;17.90;99.90;;;;;;5038190;28;20127;-31
2022/10/21 11:28:53;;;;;;;11.55;9.25;;;17.80;99.90;;;;;;5051180;28;20076;-30
2022/10/21 11:31:30;;;;;;;10.48;8.02;;;17.80;99.90;;;;;;5044822;28;20052;-31
2022/10/21 11:34:22;;;;;;;9.68;8.68;;;17.70;99.90;;;;;;5070816;28;20644;-30
2022/10/21 11:37:13;;;;;;;11.73;8.77;;;17.70;99.90;;;;;;5051664;28;20116;-31
2022/10/21 11:39:48;;;;;;;12.18;8.38;;;17.70;99.90;;;;;;5050123;28;20128;-30
2022/10/21 11:42:39;;;;;;;11.82;8.68;;;17.70;99.90;;;;;;5042287;28;20133;-32
2022/10/21 11:45:11;;;;;;;12.45;8.70;;;17.60;99.90;;;;;;5033485;28;20366;-31
2022/10/21 11:48:01;;;;;;;12.98;8.80;;;17.60;99.90;;;;;;5053682;28;20085;-30
2022/10/21 11:50:33;;;;;;;11.65;8.35;;;17.60;99.90;;;;;;5055318;28;20040;-30
2022/10/21 11:53:13;;;;;;;11.98;8.75;;;17.70;99.90;;;;;;5039568;28;20098;-30
2022/10/21 11:55:45;;;;;;;11.98;8.70;;;17.70;99.90;;;;;;5068048;28;20102;-30
2022/10/21 11:58:28;;;;;;;11.48;8.27;;;17.70;99.90;;;;;;5052270;28;20040;-30
2022/10/21 12:01:08;;;;;;;;;;;17.70;99.90;;;;;;5050172;28;20123;-31
2022/10/21 12:03:37;;;;;;;10.82;8.25;;;17.70;99.90;;;;;;5057627;28;19924;-32
2022/10/21 12:06:29;;;;;;;16.08;9.18;;;17.70;99.90;;;;;;5039463;28;20033;-31
2022/10/21 12:09:01;;;;;;;11.45;9.88;;;17.70;99.90;;;;;;5037181;28;20048;-31
2022/10/21 12:11:40;;;;;;;10.40;9.30;;;17.70;99.90;;;;;;5050304;28;20490;-29
2022/10/21 12:14:20;;;;;;;14.45;9.25;;;17.80;99.90;;;;;;5061954;28;20402;-33
2022/10/21 12:16:50;;;;;;;10.98;8.00;;;17.80;99.90;;;;;;5041253;28;20084;-30
2022/10/21 12:19:16;;;;;;;10.98;8.25;;;18.00;99.90;;;;;;5054666;28;20064;-31
2022/10/21 12:21:44;;;;;;;10.55;8.50;;;18.20;99.90;;;;;;5057357;28;20306;-30
2022/10/21 12:24:32;;;;;;;11.55;8.00;;;18.20;99.90;;;;;;5056776;28;20115;-31
2022/10/21 12:27:33;;;;;;;14.10;8.60;;;18.20;99.90;;;;;;5058663;28;20044;-32
2022/10/21 12:30:19;;;;;;;11.40;7.40;;;18.20;99.90;;;;;;5065808;28;20036;-31
2022/10/21 12:33:07;;;;;;;9.68;8.45;;;18.10;99.90;;;;;;5045867;28;20040;-30
2022/10/21 12:35:55;;;;;;;10.40;7.57;;;18.00;99.90;;;;;;5050640;28;20044;-32
2022/10/21 12:38:40;;;;;;;10.10;7.53;;;17.90;99.90;;;;;;5045248;28;20123;-32
2022/10/21 12:41:24;;;;;;;9.48;8.20;;;17.80;99.90;;;;;;5049139;28;20036;-31
2022/10/21 12:44:02;;;;;;;13.98;8.70;;;17.80;99.90;;;;;;5074498;28;20036;-30
2022/10/21 12:46:47;;;;;;;9.25;7.88;;;17.70;99.90;;;;;;5048737;28;20044;-30
2022/10/21 12:49:22;;;;;;;9.80;7.80;;;17.70;99.90;;;;;;5055813;28;20033;-31
2022/10/21 12:52:03;;;;;;;10.48;8.32;;;17.60;99.90;;;;;;5059096;28;20039;-31